createdAt,value
2019-05-11T00:03:58.282Z,96584.86
2019-05-11T00:09:05.538Z,96580.17
2019-05-11T00:14:11.370Z,96574.16
2019-05-11T00:19:16.806Z,96557.41
2019-05-11T00:24:21.966Z,96543.75
2019-05-11T00:29:27.745Z,96544.83
2019-05-11T00:34:32.770Z,96520.09
2019-05-11T00:39:38.217Z,96532.98
2019-05-11T00:44:47.045Z,96530.64
2019-05-11T00:49:50.205Z,96527.50
2019-05-11T00:54:56.058Z,96534.00
2019-05-11T01:00:01.263Z,96527.88
2019-05-11T01:05:06.773Z,96524.75
2019-05-11T01:10:23.561Z,96525.13
2019-05-11T01:15:20.140Z,96532.87
2019-05-11T01:20:25.412Z,96532.49
2019-05-11T01:25:31.302Z,96539.89
2019-05-11T01:30:38.787Z,96546.05
2019-05-11T01:35:43.583Z,96507.23
2019-05-11T01:40:58.328Z,96501.44
2019-05-11T01:45:55.957Z,96492.59
2019-05-11T01:51:01.498Z,96484.69
2019-05-11T01:56:06.973Z,96470.70
2019-05-11T02:01:12.812Z,96453.36
2019-05-11T02:06:17.927Z,96469.38
2019-05-11T02:11:23.167Z,96481.13
2019-05-11T02:16:28.232Z,96483.58
2019-05-11T02:21:33.764Z,96470.57
2019-05-11T02:26:38.919Z,96460.09
2019-05-11T02:31:44.486Z,96458.77
2019-05-11T02:36:49.637Z,96449.05
2019-05-11T02:41:54.719Z,96436.61
2019-05-11T02:47:00.147Z,96422.00
2019-05-11T02:52:05.929Z,96419.89
2019-05-11T02:57:10.987Z,96410.26
2019-05-11T03:02:16.406Z,96408.09
2019-05-11T03:07:21.931Z,96392.28
2019-05-11T03:12:26.976Z,96388.81
2019-05-11T03:17:34.143Z,96387.34
2019-05-11T03:22:39.595Z,96379.09
2019-05-11T03:27:44.795Z,96368.55
2019-05-11T03:32:50.217Z,96372.13
2019-05-11T03:37:55.679Z,96367.63
2019-05-11T03:43:00.843Z,96373.58
2019-05-11T03:48:06.290Z,96378.42
2019-05-11T03:53:11.453Z,96396.92
2019-05-11T03:58:16.899Z,96389.28
2019-05-11T04:03:22.579Z,96371.76
2019-05-11T04:08:27.654Z,96380.09
2019-05-11T04:13:33.090Z,96385.01
2019-05-11T04:18:38.239Z,96372.37
2019-05-11T04:23:43.665Z,96362.61
2019-05-11T04:28:49.365Z,96365.12
2019-05-11T04:33:55.030Z,96372.39
2019-05-11T04:39:00.108Z,96374.82
2019-05-11T04:44:05.432Z,96374.47
2019-05-11T04:49:10.577Z,96370.95
2019-05-11T04:54:15.992Z,96362.47
2019-05-11T04:59:21.410Z,96368.22
2019-05-11T05:04:26.577Z,96357.90
2019-05-11T05:09:36.157Z,96354.08
2019-05-11T05:14:38.619Z,96361.59
2019-05-11T05:19:44.054Z,96340.77
2019-05-11T05:24:49.174Z,96354.25
2019-05-11T05:29:54.893Z,96351.95
2019-05-11T05:35:00.402Z,96349.87
2019-05-11T05:40:06.170Z,96334.07
2019-05-11T05:45:11.793Z,96338.80
2019-05-11T05:50:17.412Z,96340.80
2019-05-11T05:55:22.912Z,96342.42
2019-05-11T06:00:28.126Z,96346.73
2019-05-11T06:05:33.211Z,96343.45
2019-05-11T06:10:38.279Z,96334.83
2019-05-11T06:15:44.042Z,96336.83
2019-05-11T06:20:49.500Z,96330.06
2019-05-11T06:25:54.873Z,96331.89
2019-05-11T06:31:00.295Z,96332.21
2019-05-11T06:36:05.527Z,96340.44
2019-05-11T06:41:10.732Z,96349.46
2019-05-11T06:46:16.499Z,96345.95
2019-05-11T06:51:22.411Z,96354.42
2019-05-11T06:56:27.803Z,96371.19
2019-05-11T07:01:32.991Z,96380.54
2019-05-11T07:06:38.321Z,96382.53
2019-05-11T07:11:43.674Z,96373.46
2019-05-11T07:16:48.896Z,96367.30
2019-05-11T07:21:54.625Z,96365.91
2019-05-11T07:26:59.766Z,96363.77
2019-05-11T07:32:14.960Z,96350.30
2019-05-11T07:37:12.388Z,96340.30
2019-05-11T07:42:18.164Z,96337.95
2019-05-11T07:47:23.446Z,96340.35
2019-05-11T07:52:29.023Z,96339.12
2019-05-11T07:57:34.558Z,96333.41
2019-05-11T08:02:39.839Z,96335.87
2019-05-11T08:07:44.938Z,96329.89
2019-05-11T08:12:49.935Z,96327.59
2019-05-11T08:17:57.839Z,96323.91
2019-05-11T08:23:03.325Z,96327.55
2019-05-11T08:28:11.849Z,96321.73
2019-05-11T08:33:17.810Z,96337.52
2019-05-11T08:38:22.774Z,96333.81
2019-05-11T08:43:28.636Z,96329.04
2019-05-11T08:48:34.118Z,96316.80
2019-05-11T08:53:39.745Z,96315.78
2019-05-11T08:58:45.728Z,96314.44
2019-05-11T09:03:51.182Z,96314.96
2019-05-11T09:08:58.361Z,96315.02
2019-05-11T09:14:03.310Z,96312.14
2019-05-11T09:19:08.944Z,96316.55
2019-05-11T09:24:14.179Z,96313.57
2019-05-11T09:29:20.233Z,96317.52
2019-05-11T09:34:25.586Z,96317.03
2019-05-11T09:39:31.276Z,96345.35
2019-05-11T09:44:37.963Z,96327.18
2019-05-11T09:49:47.785Z,96322.06
2019-05-11T09:54:50.471Z,96324.48
2019-05-11T09:59:58.114Z,96327.33
2019-05-11T10:05:02.537Z,96320.77
2019-05-11T10:10:09.381Z,96329.72
2019-05-11T10:15:18.597Z,96325.86
2019-05-11T10:20:23.359Z,96331.14
2019-05-11T10:25:29.153Z,96316.80
2019-05-11T10:30:34.288Z,96337.20
2019-05-11T10:35:39.718Z,96324.77
2019-05-11T10:40:47.842Z,96324.39
2019-05-11T10:45:52.550Z,96320.02
2019-05-11T10:50:57.750Z,96335.10
2019-05-11T10:56:02.874Z,96339.94
2019-05-11T11:01:08.854Z,96333.55
2019-05-11T11:06:14.066Z,96336.23
2019-05-11T11:11:19.507Z,96342.09
2019-05-11T11:16:35.663Z,96331.30
2019-05-11T11:21:31.639Z,96341.23
2019-05-11T11:26:38.072Z,96333.22
2019-05-11T11:31:43.832Z,96335.95
2019-05-11T11:36:48.881Z,96343.39
2019-05-11T11:41:54.315Z,96344.55
2019-05-11T11:46:59.941Z,96337.16
2019-05-11T11:52:05.579Z,96345.35
2019-05-11T11:57:10.640Z,96336.80
2019-05-11T12:02:15.738Z,96333.39
2019-05-11T12:07:21.416Z,96331.80
2019-05-11T12:12:27.922Z,96335.34
2019-05-11T12:17:33.127Z,96332.21
2019-05-11T12:22:38.759Z,96342.31
2019-05-11T12:27:44.037Z,96335.63
2019-05-11T12:32:50.303Z,96355.83
2019-05-11T12:37:55.291Z,96352.76
2019-05-11T12:43:00.340Z,96362.28
2019-05-11T12:48:05.537Z,96353.22
2019-05-11T12:53:10.669Z,96353.41
2019-05-11T12:58:18.148Z,96339.84
2019-05-11T13:03:23.027Z,96339.45
2019-05-11T13:08:28.463Z,96334.17
2019-05-11T13:13:33.699Z,96326.17
2019-05-11T13:18:39.195Z,96319.81
2019-05-11T13:23:44.776Z,96320.08
2019-05-11T13:28:50.114Z,96333.59
2019-05-11T13:33:58.359Z,96343.52
2019-05-11T13:39:03.495Z,96322.92
2019-05-11T13:44:09.475Z,96364.27
2019-05-11T13:49:14.802Z,96359.70
2019-05-11T13:54:20.158Z,96354.73
2019-05-11T13:59:27.849Z,96370.79
2019-05-11T14:04:33.090Z,96394.84
2019-05-11T14:09:38.725Z,96398.03
2019-05-11T14:14:44.074Z,96406.64
2019-05-11T14:19:49.541Z,96414.23
2019-05-11T14:24:55.406Z,96417.39
2019-05-11T14:30:04.072Z,96412.48
2019-05-11T14:35:11.971Z,96422.49
2019-05-11T14:40:15.037Z,96437.39
2019-05-11T14:45:20.165Z,96454.50
2019-05-11T14:50:27.967Z,96464.22
2019-05-11T14:55:32.727Z,96456.17
2019-05-11T15:00:39.223Z,96460.12
2019-05-11T15:05:44.608Z,96472.52
2019-05-11T15:10:50.391Z,96506.98
2019-05-11T15:15:55.867Z,96501.02
2019-05-11T15:21:01.317Z,96505.08
2019-05-11T15:26:09.969Z,96517.66
2019-05-11T15:31:14.078Z,96530.20
2019-05-11T15:36:19.559Z,96532.17
2019-05-11T15:41:24.964Z,96527.86
2019-05-11T15:46:30.682Z,96525.52
2019-05-11T15:51:38.343Z,96551.61
2019-05-11T15:56:42.611Z,96585.36
2019-05-11T16:01:48.919Z,96662.14
2019-05-11T16:06:54.502Z,96668.41
2019-05-11T16:11:59.592Z,96696.84
2019-05-11T16:17:04.964Z,96702.45
2019-05-11T16:22:10.835Z,96706.50
2019-05-11T16:27:18.313Z,96726.46
2019-05-11T16:32:23.704Z,96719.52
2019-05-11T16:37:29.063Z,96730.38
2019-05-11T16:42:34.566Z,96721.06
2019-05-11T16:47:39.799Z,96738.66
2019-05-11T16:52:47.899Z,96755.14
2019-05-11T16:57:52.327Z,96745.52
2019-05-11T17:02:57.836Z,96769.77
2019-05-11T17:08:03.367Z,96775.50
2019-05-11T17:13:09.126Z,96765.27
2019-05-11T17:18:14.203Z,96763.85
2019-05-11T17:23:19.428Z,96768.20
2019-05-11T17:28:24.774Z,96769.45
2019-05-11T17:33:29.899Z,96777.17
2019-05-11T17:38:34.926Z,96772.84
2019-05-11T17:43:40.258Z,96759.00
2019-05-11T17:48:45.447Z,96761.59
2019-05-11T17:53:50.591Z,96767.28
2019-05-11T17:58:58.353Z,96770.53
2019-05-11T18:04:03.108Z,96782.64
2019-05-11T18:09:08.892Z,96783.70
2019-05-11T18:14:13.953Z,96782.95
2019-05-11T18:19:19.237Z,96799.86
2019-05-11T18:24:24.635Z,96808.13
2019-05-11T18:29:30.431Z,96820.09
2019-05-11T18:34:37.718Z,96838.97
2019-05-11T18:39:43.234Z,96845.34
2019-05-11T18:44:48.599Z,96837.79
2019-05-11T18:49:53.751Z,96845.02
2019-05-11T18:54:59.962Z,96860.32
2019-05-11T19:00:08.121Z,96865.58
2019-05-11T19:05:13.546Z,96853.75
2019-05-11T19:10:18.941Z,96865.86
2019-05-11T19:15:24.284Z,96872.08
2019-05-11T19:20:44.287Z,96868.92
2019-05-11T19:25:37.536Z,96863.61
2019-05-11T19:30:43.066Z,96862.78
2019-05-11T19:35:48.659Z,96868.03
2019-05-11T19:40:54.161Z,96882.11
2019-05-11T19:46:00.544Z,96890.29
2019-05-11T19:51:09.109Z,96900.63
2019-05-11T19:56:13.323Z,96908.17
2019-05-11T20:01:19.063Z,96912.03
2019-05-11T20:06:24.568Z,96922.28
2019-05-11T20:11:30.093Z,96935.30
2019-05-11T20:16:36.330Z,96931.84
2019-05-11T20:21:41.723Z,96931.18
2019-05-11T20:26:46.795Z,96939.95
2019-05-11T20:31:52.544Z,96953.51
2019-05-11T20:36:58.656Z,96953.51
2019-05-11T20:42:04.389Z,96956.98
2019-05-11T20:47:09.854Z,96967.73
2019-05-11T20:52:17.681Z,96962.41
2019-05-11T20:57:22.228Z,96963.14
2019-05-11T21:02:28.878Z,96962.59
2019-05-11T21:07:34.230Z,96969.05
2019-05-11T21:12:39.961Z,96968.66
2019-05-11T21:17:45.480Z,96977.31
2019-05-11T21:22:51.255Z,96986.23
2019-05-11T21:27:57.905Z,96985.63
2019-05-11T21:33:04.013Z,96984.80
2019-05-11T21:38:09.587Z,96993.62
2019-05-11T21:43:15.397Z,97011.62
2019-05-11T21:48:23.133Z,97019.52
2019-05-11T21:53:28.870Z,97036.69
2019-05-11T21:58:34.491Z,97044.59
2019-05-11T22:03:39.866Z,97055.97
2019-05-11T22:08:50.563Z,97071.06
2019-05-11T22:13:52.718Z,97074.20
2019-05-11T22:18:58.278Z,97074.66
2019-05-11T22:24:04.052Z,97080.16
2019-05-11T22:29:09.302Z,97087.41
2019-05-11T22:34:14.290Z,97091.50
2019-05-11T22:39:20.823Z,97101.20
2019-05-11T22:44:27.884Z,97100.03
2019-05-11T22:49:33.328Z,97106.91
2019-05-11T22:54:38.968Z,97111.41
2019-05-11T22:59:44.542Z,97116.23
2019-05-11T23:04:49.892Z,97120.90
2019-05-11T23:09:55.249Z,97129.28
2019-05-11T23:15:12.793Z,97118.43
2019-05-11T23:20:18.374Z,97120.48
2019-05-11T23:25:23.449Z,97123.17
2019-05-11T23:30:28.863Z,97124.02
2019-05-11T23:35:34.681Z,97130.28
2019-05-11T23:40:40.090Z,97144.76
2019-05-11T23:45:45.489Z,97141.63
2019-05-11T23:50:50.913Z,97145.95
2019-05-11T23:55:57.960Z,97158.16
